Toano, Virginia
Current Conditions -  °F | °C
As of 9:55 PM on Wednesday 26 Nov 2014 (Local Time) from KFYJ Reporting Station
Overcast Overcast  
Wind Chill: 34°   Ceiling: 800
Heat Index: 40°   Visibility: 10mi
Dew Point: 37°   Wind: 10mph
Humidity: 86%   Direction: 270°W
Pressure: 30.04"   Gusts: NA
Location:  37.38°N, 76.8°W
Report Text: KFYJ 270255Z AUTO 27009KT 10SM BKN008 OVC012 05/03 A3004 RMK AO2 T00470026
Loading
Personal Weather Stations






























Interactive Weather Map New forecast layout! Learn more

10-Day Weather Forecast

Advertisements
Track Severe Weather on mobile